B603L ZWWW-LTBA
Flight info
| Callsign | B603L |
|---|---|
| Flight time | N/A |
| Altitude | 34100 |
| Route | WUR W190 VARMI A368 SARIN/K0854F360 N161 RITET/K0845F380 N161 GASBI/N0455F380 N161 LEYLA N644 LAGAS/N0460F400 N61 NOLGA UN61 TBN UW71 TEMEL UM11 CRM UW71 ILHAN UT79 NAMAN |
| Aircraft | CL60/M-SBDE1E2E3FGHIJ1J4J5J7M3RWXYZ/LB1V1D1 |
Departure
| Time | N/A |
|---|---|
| Airport | Ürümqi Tianshan International Airport (ZWWW) |
Arrival
| Time | 2026-04-24 20:09 |
|---|---|
| Airport | İstanbul Atatürk Airport (LTBA) |
| Time | Latitude | Longitude | Altitude | Speed | Heading |
|---|---|---|---|---|---|
| 2026-04-24 15:39 | 47.49749 | 66.32577 | 36004 ft | 427 kts | 257° |
| 2026-04-24 15:39 | 47.49031 | 66.28285 | 35976 ft | 427 kts | 257° |
| 2026-04-24 15:39 | 47.47607 | 66.19793 | 35981 ft | 427 kts | 257° |
| 2026-04-24 15:40 | 47.46163 | 66.11252 | 35990 ft | 426 kts | 257° |
| 2026-04-24 15:40 | 47.44723 | 66.02782 | 35994 ft | 426 kts | 257° |
| 2026-04-24 15:41 | 47.43281 | 65.94312 | 35956 ft | 426 kts | 257° |
| 2026-04-24 15:41 | 47.41833 | 65.85860 | 35967 ft | 425 kts | 257° |
| 2026-04-24 15:42 | 47.40420 | 65.77384 | 35989 ft | 425 kts | 258° |
| 2026-04-24 15:42 | 47.39026 | 65.68870 | 35955 ft | 425 kts | 257° |
| 2026-04-24 15:43 | 47.37611 | 65.60404 | 35957 ft | 424 kts | 258° |
| 2026-04-24 15:43 | 47.36211 | 65.51976 | 35966 ft | 424 kts | 258° |
| 2026-04-24 15:44 | 47.34804 | 65.43577 | 35949 ft | 424 kts | 257° |
| 2026-04-24 15:44 | 47.33380 | 65.35145 | 35954 ft | 424 kts | 257° |
| 2026-04-24 15:45 | 47.31956 | 65.26724 | 35942 ft | 424 kts | 257° |
| 2026-04-24 15:45 | 47.30529 | 65.18317 | 35950 ft | 424 kts | 257° |
| 2026-04-24 15:46 | 47.29082 | 65.09865 | 35920 ft | 424 kts | 257° |
| 2026-04-24 15:46 | 47.27649 | 65.01524 | 35949 ft | 422 kts | 257° |
| 2026-04-24 15:47 | 47.26201 | 64.93136 | 35959 ft | 422 kts | 257° |
| 2026-04-24 15:47 | 47.24756 | 64.84815 | 35947 ft | 422 kts | 257° |
| 2026-04-24 15:48 | 47.23291 | 64.76433 | 35934 ft | 421 kts | 257° |
| 2026-04-24 15:48 | 47.21833 | 64.68110 | 35925 ft | 421 kts | 257° |
| 2026-04-24 15:49 | 47.20375 | 64.59827 | 35933 ft | 420 kts | 257° |
| 2026-04-24 15:49 | 47.18905 | 64.51516 | 35925 ft | 420 kts | 257° |
| 2026-04-24 15:50 | 47.17437 | 64.43224 | 35928 ft | 420 kts | 257° |
| 2026-04-24 15:50 | 47.15963 | 64.34914 | 35922 ft | 420 kts | 256° |
| 2026-04-24 15:51 | 47.14487 | 64.26657 | 35922 ft | 420 kts | 256° |
| 2026-04-24 15:51 | 47.13000 | 64.18379 | 35901 ft | 419 kts | 256° |
| 2026-04-24 15:52 | 47.11522 | 64.10178 | 35922 ft | 418 kts | 256° |
| 2026-04-24 15:52 | 47.10034 | 64.01952 | 35919 ft | 418 kts | 256° |
| 2026-04-24 15:53 | 47.08528 | 63.93675 | 35916 ft | 418 kts | 256° |
| 2026-04-24 15:53 | 47.07032 | 63.85492 | 35917 ft | 417 kts | 256° |
| 2026-04-24 15:54 | 47.05529 | 63.77299 | 35911 ft | 416 kts | 256° |
| 2026-04-24 15:54 | 47.04015 | 63.69087 | 35915 ft | 416 kts | 256° |
| 2026-04-24 15:55 | 47.02500 | 63.60900 | 35937 ft | 415 kts | 256° |
| 2026-04-24 15:55 | 47.00979 | 63.52713 | 35906 ft | 416 kts | 256° |
| 2026-04-24 15:56 | 46.99457 | 63.44575 | 35917 ft | 415 kts | 256° |
| 2026-04-24 15:56 | 46.97930 | 63.36437 | 35928 ft | 414 kts | 256° |
| 2026-04-24 15:57 | 46.96387 | 63.28242 | 35904 ft | 415 kts | 255° |
| 2026-04-24 15:57 | 46.94841 | 63.20078 | 35913 ft | 414 kts | 255° |
| 2026-04-24 15:58 | 46.93293 | 63.11938 | 35897 ft | 414 kts | 255° |
| 2026-04-24 15:58 | 46.91751 | 63.03865 | 35895 ft | 413 kts | 255° |
| 2026-04-24 15:59 | 46.90200 | 62.95774 | 35891 ft | 413 kts | 255° |
| 2026-04-24 15:59 | 46.88652 | 62.87729 | 35895 ft | 412 kts | 255° |
| 2026-04-24 16:00 | 46.87089 | 62.79657 | 35889 ft | 413 kts | 255° |
| 2026-04-24 16:00 | 46.85525 | 62.71597 | 35892 ft | 412 kts | 255° |
| 2026-04-24 16:01 | 46.83968 | 62.63608 | 36157 ft | 403 kts | 255° |
| 2026-04-24 16:01 | 46.83207 | 62.59721 | 36431 ft | 398 kts | 254° |
| 2026-04-24 16:01 | 46.82440 | 62.55815 | 36660 ft | 396 kts | 255° |
| 2026-04-24 16:02 | 46.81679 | 62.51944 | 36935 ft | 393 kts | 254° |
| 2026-04-24 16:02 | 46.80927 | 62.48125 | 37045 ft | 396 kts | 254° |
| 2026-04-24 16:02 | 46.80172 | 62.44295 | 37327 ft | 392 kts | 254° |
| 2026-04-24 16:02 | 46.79427 | 62.40511 | 37833 ft | 384 kts | 254° |
| 2026-04-24 16:03 | 46.77936 | 62.32975 | 37851 ft | 392 kts | 253° |
| 2026-04-24 16:03 | 46.76409 | 62.25304 | 37912 ft | 399 kts | 253° |
| 2026-04-24 16:04 | 46.74839 | 62.17448 | 37894 ft | 407 kts | 253° |
| 2026-04-24 16:04 | 46.73250 | 62.09508 | 37889 ft | 412 kts | 253° |
| 2026-04-24 16:05 | 46.70821 | 61.97449 | 37871 ft | 416 kts | 253° |
| 2026-04-24 16:06 | 46.68373 | 61.85365 | 37886 ft | 413 kts | 253° |
| 2026-04-24 16:07 | 46.65935 | 61.73415 | 37871 ft | 412 kts | 253° |
| 2026-04-24 16:07 | 46.63485 | 61.61470 | 37858 ft | 412 kts | 253° |
| 2026-04-24 16:08 | 46.61020 | 61.49520 | 37872 ft | 411 kts | 253° |
| 2026-04-24 16:09 | 46.58547 | 61.37619 | 37874 ft | 411 kts | 253° |
| 2026-04-24 16:09 | 46.56880 | 61.29628 | 37889 ft | 411 kts | 252° |
| 2026-04-24 16:11 | 46.52721 | 61.09827 | 37871 ft | 410 kts | 252° |
| 2026-04-24 16:11 | 46.51057 | 61.01961 | 37878 ft | 409 kts | 252° |
| 2026-04-24 16:12 | 46.48545 | 60.90138 | 37863 ft | 409 kts | 252° |
| 2026-04-24 16:13 | 46.46032 | 60.78380 | 37852 ft | 409 kts | 252° |
| 2026-04-24 16:14 | 46.42660 | 60.62702 | 37848 ft | 408 kts | 252° |
| 2026-04-24 16:14 | 46.40115 | 60.50948 | 37859 ft | 408 kts | 252° |
| 2026-04-24 16:15 | 46.37553 | 60.39196 | 37822 ft | 409 kts | 252° |
| 2026-04-24 16:16 | 46.34998 | 60.27527 | 37840 ft | 408 kts | 251° |
| 2026-04-24 16:17 | 46.30704 | 60.08064 | 37842 ft | 406 kts | 251° |
| 2026-04-24 16:18 | 46.27246 | 59.92525 | 37845 ft | 406 kts | 251° |
| 2026-04-24 16:19 | 46.24649 | 59.80923 | 37843 ft | 405 kts | 251° |
| 2026-04-24 16:20 | 46.22050 | 59.69378 | 37836 ft | 405 kts | 251° |
| 2026-04-24 16:20 | 46.19407 | 59.57798 | 37837 ft | 406 kts | 251° |
| 2026-04-24 16:21 | 46.16758 | 59.46219 | 37823 ft | 406 kts | 251° |
| 2026-04-24 16:22 | 46.14998 | 59.38569 | 37816 ft | 405 kts | 251° |
| 2026-04-24 16:22 | 46.12329 | 59.27027 | 37818 ft | 406 kts | 250° |
| 2026-04-24 16:23 | 46.10535 | 59.19290 | 37837 ft | 406 kts | 250° |
| 2026-04-24 16:24 | 46.07842 | 59.07735 | 37807 ft | 406 kts | 250° |
| 2026-04-24 16:24 | 46.06050 | 59.00082 | 37808 ft | 406 kts | 250° |
| 2026-04-24 16:25 | 46.04241 | 58.92376 | 37815 ft | 406 kts | 250° |
| 2026-04-24 16:25 | 46.02433 | 58.84712 | 37811 ft | 405 kts | 250° |
| 2026-04-24 16:26 | 45.99707 | 58.73204 | 37804 ft | 405 kts | 250° |
| 2026-04-24 16:27 | 45.96980 | 58.61734 | 37823 ft | 405 kts | 250° |
| 2026-04-24 16:27 | 45.95152 | 58.54091 | 37819 ft | 405 kts | 250° |
| 2026-04-24 16:28 | 45.93320 | 58.46458 | 37835 ft | 405 kts | 250° |
| 2026-04-24 16:28 | 45.90561 | 58.34990 | 37814 ft | 404 kts | 250° |
| 2026-04-24 16:29 | 45.88720 | 58.27387 | 37797 ft | 404 kts | 250° |
| 2026-04-24 16:30 | 45.85028 | 58.12204 | 37793 ft | 403 kts | 249° |
| 2026-04-24 16:30 | 45.83181 | 58.04641 | 37794 ft | 402 kts | 250° |
| 2026-04-24 16:31 | 45.81332 | 57.97104 | 37793 ft | 402 kts | 249° |
| 2026-04-24 16:31 | 45.79482 | 57.89587 | 37793 ft | 402 kts | 249° |
| 2026-04-24 16:32 | 45.77616 | 57.82024 | 37802 ft | 401 kts | 249° |
| 2026-04-24 16:32 | 45.75759 | 57.74519 | 37794 ft | 402 kts | 249° |
| 2026-04-24 16:33 | 45.73880 | 57.66962 | 37781 ft | 402 kts | 250° |
| 2026-04-24 16:33 | 45.72008 | 57.59455 | 37806 ft | 402 kts | 250° |
| 2026-04-24 16:34 | 45.70122 | 57.51910 | 37793 ft | 402 kts | 249° |
| 2026-04-24 16:34 | 45.68238 | 57.44395 | 37796 ft | 402 kts | 249° |
| 2026-04-24 16:35 | 45.66356 | 57.36921 | 37794 ft | 402 kts | 249° |
| 2026-04-24 16:35 | 45.64462 | 57.29431 | 37789 ft | 401 kts | 249° |
| 2026-04-24 16:36 | 45.62570 | 57.21959 | 37784 ft | 401 kts | 249° |
| 2026-04-24 16:36 | 45.60666 | 57.14463 | 37798 ft | 400 kts | 249° |
| 2026-04-24 16:37 | 45.58772 | 57.07038 | 37782 ft | 400 kts | 249° |
| 2026-04-24 16:37 | 45.56858 | 56.99563 | 37793 ft | 400 kts | 249° |
| 2026-04-24 16:38 | 45.54951 | 56.92135 | 37795 ft | 400 kts | 249° |
| 2026-04-24 16:38 | 45.53035 | 56.84692 | 37793 ft | 400 kts | 248° |
| 2026-04-24 16:39 | 45.51129 | 56.77311 | 37793 ft | 399 kts | 248° |
| 2026-04-24 16:39 | 45.49200 | 56.69861 | 37784 ft | 398 kts | 249° |
| 2026-04-24 16:40 | 45.47272 | 56.62441 | 37787 ft | 398 kts | 248° |
| 2026-04-24 16:40 | 45.45337 | 56.55016 | 37798 ft | 398 kts | 248° |
| 2026-04-24 16:41 | 45.43408 | 56.47637 | 37783 ft | 398 kts | 248° |
| 2026-04-24 16:41 | 45.41465 | 56.40244 | 37786 ft | 398 kts | 249° |
| 2026-04-24 16:42 | 45.39526 | 56.32879 | 37796 ft | 398 kts | 248° |
| 2026-04-24 16:42 | 45.37580 | 56.25509 | 37804 ft | 398 kts | 248° |
| 2026-04-24 16:43 | 45.35631 | 56.18144 | 37816 ft | 397 kts | 248° |
| 2026-04-24 16:43 | 45.33678 | 56.10791 | 37818 ft | 397 kts | 248° |
| 2026-04-24 16:44 | 45.31732 | 56.03495 | 37823 ft | 396 kts | 248° |
| 2026-04-24 16:44 | 45.30037 | 55.97156 | 37800 ft | 396 kts | 248° |
| 2026-04-24 16:45 | 45.28086 | 55.89866 | 37812 ft | 395 kts | 248° |
| 2026-04-24 16:45 | 45.26123 | 55.82565 | 37810 ft | 395 kts | 248° |
| 2026-04-24 16:46 | 45.24168 | 55.75324 | 37799 ft | 395 kts | 248° |
| 2026-04-24 16:46 | 45.22198 | 55.68044 | 37817 ft | 396 kts | 248° |
| 2026-04-24 16:47 | 45.20209 | 55.60718 | 37794 ft | 396 kts | 248° |
| 2026-04-24 16:47 | 45.18235 | 55.53466 | 37823 ft | 395 kts | 248° |
| 2026-04-24 16:48 | 45.16257 | 55.46215 | 37798 ft | 397 kts | 248° |
| 2026-04-24 16:48 | 45.14268 | 55.38950 | 37804 ft | 395 kts | 248° |
| 2026-04-24 16:49 | 45.12275 | 55.31691 | 37831 ft | 395 kts | 247° |
| 2026-04-24 16:49 | 45.10278 | 55.24441 | 37827 ft | 396 kts | 247° |
| 2026-04-24 16:50 | 45.07706 | 55.17550 | 37813 ft | 394 kts | 233° |
| 2026-04-24 16:50 | 45.03835 | 55.12052 | 37822 ft | 397 kts | 224° |
| 2026-04-24 16:51 | 44.99756 | 55.06751 | 37800 ft | 397 kts | 224° |
| 2026-04-24 16:51 | 44.95692 | 55.01477 | 37802 ft | 396 kts | 224° |
| 2026-04-24 16:52 | 44.91633 | 54.96235 | 37804 ft | 395 kts | 224° |
| 2026-04-24 16:52 | 44.87584 | 54.90994 | 37822 ft | 395 kts | 224° |
| 2026-04-24 16:53 | 44.83514 | 54.85748 | 37812 ft | 396 kts | 224° |
| 2026-04-24 16:53 | 44.79459 | 54.80541 | 37817 ft | 395 kts | 224° |
| 2026-04-24 16:54 | 44.75383 | 54.75309 | 37828 ft | 395 kts | 224° |
| 2026-04-24 16:54 | 44.71332 | 54.70115 | 37789 ft | 395 kts | 225° |
| 2026-04-24 16:55 | 44.67249 | 54.64890 | 37830 ft | 395 kts | 226° |
| 2026-04-24 16:55 | 44.63836 | 54.58884 | 37801 ft | 394 kts | 237° |
| 2026-04-24 16:56 | 44.60725 | 54.52564 | 37825 ft | 394 kts | 236° |
| 2026-04-24 16:56 | 44.57914 | 54.46923 | 37820 ft | 394 kts | 236° |
| 2026-04-24 16:57 | 44.54800 | 54.40642 | 37836 ft | 394 kts | 236° |
| 2026-04-24 16:57 | 44.51642 | 54.34335 | 37820 ft | 395 kts | 235° |
| 2026-04-24 16:58 | 44.48484 | 54.28027 | 37803 ft | 395 kts | 235° |
| 2026-04-24 16:58 | 44.45343 | 54.21757 | 37832 ft | 395 kts | 235° |
| 2026-04-24 16:59 | 44.42163 | 54.15443 | 37824 ft | 395 kts | 235° |
| 2026-04-24 17:00 | 44.37419 | 54.06042 | 37836 ft | 394 kts | 235° |
| 2026-04-24 17:00 | 44.32677 | 53.96676 | 37826 ft | 393 kts | 235° |
| 2026-04-24 17:01 | 44.27927 | 53.87329 | 37834 ft | 394 kts | 235° |
| 2026-04-24 17:02 | 44.23158 | 53.77967 | 37842 ft | 394 kts | 235° |
| 2026-04-24 17:02 | 44.19999 | 53.71790 | 37837 ft | 393 kts | 235° |
| 2026-04-24 17:03 | 44.15226 | 53.62476 | 37845 ft | 395 kts | 235° |
| 2026-04-24 17:04 | 44.12021 | 53.56236 | 37834 ft | 393 kts | 235° |
| 2026-04-24 17:04 | 44.07261 | 53.47002 | 37807 ft | 394 kts | 235° |
| 2026-04-24 17:05 | 44.04063 | 53.40814 | 37822 ft | 392 kts | 235° |
| 2026-04-24 17:06 | 43.99287 | 53.31591 | 37837 ft | 394 kts | 234° |
| 2026-04-24 17:06 | 43.94483 | 53.22353 | 37834 ft | 393 kts | 234° |
| 2026-04-24 17:07 | 43.91295 | 53.16233 | 37815 ft | 394 kts | 235° |
| 2026-04-24 17:08 | 43.84854 | 53.03912 | 37828 ft | 395 kts | 234° |
| 2026-04-24 17:08 | 43.81623 | 52.97757 | 37853 ft | 395 kts | 234° |
| 2026-04-24 17:09 | 43.75170 | 52.85491 | 37829 ft | 395 kts | 234° |
| 2026-04-24 17:10 | 43.68735 | 52.73322 | 37819 ft | 394 kts | 235° |
| 2026-04-24 17:12 | 43.55846 | 52.49156 | 37851 ft | 390 kts | 236° |
| 2026-04-24 18:54 | 41.08462 | 38.83962 | 40064 ft | 409 kts | 275° |
| 2026-04-24 18:55 | 41.09471 | 38.72760 | 40080 ft | 410 kts | 275° |
| 2026-04-24 18:56 | 41.10130 | 38.65271 | 40070 ft | 409 kts | 275° |
| 2026-04-24 18:56 | 41.10766 | 38.57813 | 40078 ft | 409 kts | 275° |
| 2026-04-24 18:57 | 41.11394 | 38.50303 | 40071 ft | 409 kts | 275° |
| 2026-04-24 18:57 | 41.12014 | 38.42844 | 40075 ft | 409 kts | 275° |
| 2026-04-24 18:58 | 41.12632 | 38.35386 | 40071 ft | 409 kts | 275° |
| 2026-04-24 18:58 | 41.13246 | 38.27887 | 40069 ft | 410 kts | 274° |
| 2026-04-24 18:59 | 41.13860 | 38.20365 | 40074 ft | 411 kts | 274° |
| 2026-04-24 18:59 | 41.14476 | 38.12834 | 40071 ft | 411 kts | 274° |
| 2026-04-24 19:00 | 41.15084 | 38.05312 | 40075 ft | 411 kts | 274° |
| 2026-04-24 19:00 | 41.15684 | 37.97784 | 40073 ft | 412 kts | 275° |
| 2026-04-24 19:01 | 41.16280 | 37.90283 | 40068 ft | 412 kts | 274° |
| 2026-04-24 19:01 | 41.16905 | 37.82727 | 40069 ft | 412 kts | 275° |
| 2026-04-24 19:02 | 41.17452 | 37.76417 | 40080 ft | 413 kts | 275° |
| 2026-04-24 19:02 | 41.18185 | 37.67617 | 40078 ft | 412 kts | 275° |
| 2026-04-24 19:03 | 41.18780 | 37.60106 | 40081 ft | 412 kts | 274° |
| 2026-04-24 19:03 | 41.19182 | 37.52529 | 40070 ft | 412 kts | 275° |
| 2026-04-24 19:04 | 41.19776 | 37.44982 | 40084 ft | 412 kts | 275° |
| 2026-04-24 19:04 | 41.20319 | 37.37440 | 40080 ft | 413 kts | 275° |
| 2026-04-24 19:05 | 41.20882 | 37.29868 | 40087 ft | 413 kts | 274° |
| 2026-04-24 19:05 | 41.21434 | 37.22269 | 40076 ft | 415 kts | 275° |
| 2026-04-24 19:06 | 41.22023 | 37.14676 | 40089 ft | 414 kts | 275° |
| 2026-04-24 19:06 | 41.22616 | 37.07072 | 40078 ft | 415 kts | 275° |
| 2026-04-24 19:07 | 41.23192 | 36.99471 | 40102 ft | 414 kts | 275° |
| 2026-04-24 19:07 | 41.23677 | 36.93122 | 40082 ft | 415 kts | 275° |
| 2026-04-24 19:08 | 41.24347 | 36.84262 | 40088 ft | 415 kts | 275° |
| 2026-04-24 19:08 | 41.24911 | 36.76660 | 40081 ft | 416 kts | 275° |
| 2026-04-24 19:09 | 41.25479 | 36.68992 | 40083 ft | 415 kts | 275° |
| 2026-04-24 19:09 | 41.26038 | 36.61404 | 40089 ft | 415 kts | 275° |
| 2026-04-24 19:10 | 41.25933 | 36.53754 | 40068 ft | 415 kts | 261° |
| 2026-04-24 19:10 | 41.24196 | 36.46449 | 40089 ft | 417 kts | 251° |
| 2026-04-24 19:11 | 41.22198 | 36.39260 | 40080 ft | 417 kts | 252° |
| 2026-04-24 19:11 | 41.20188 | 36.32017 | 40081 ft | 418 kts | 251° |
| 2026-04-24 19:12 | 41.18158 | 36.24760 | 40065 ft | 419 kts | 252° |
| 2026-04-24 19:12 | 41.16145 | 36.17530 | 40082 ft | 419 kts | 251° |
| 2026-04-24 19:13 | 41.14462 | 36.11523 | 40059 ft | 420 kts | 251° |
| 2026-04-24 19:13 | 41.12084 | 36.03071 | 40058 ft | 419 kts | 251° |
| 2026-04-24 19:14 | 41.10054 | 35.95854 | 40063 ft | 419 kts | 252° |
| 2026-04-24 19:14 | 41.07981 | 35.88619 | 40059 ft | 419 kts | 251° |
| 2026-04-24 19:15 | 41.05868 | 35.81475 | 40050 ft | 418 kts | 251° |
| 2026-04-24 19:15 | 41.03769 | 35.74303 | 40049 ft | 418 kts | 251° |
| 2026-04-24 19:16 | 41.00632 | 35.63526 | 40046 ft | 419 kts | 252° |
| 2026-04-24 19:16 | 40.98586 | 35.56327 | 40040 ft | 418 kts | 251° |
| 2026-04-24 19:17 | 40.96510 | 35.49130 | 40025 ft | 419 kts | 251° |
| 2026-04-24 19:17 | 40.94446 | 35.41941 | 40046 ft | 418 kts | 251° |
| 2026-04-24 19:18 | 40.92380 | 35.34758 | 40015 ft | 419 kts | 251° |
| 2026-04-24 19:18 | 40.90302 | 35.27580 | 40017 ft | 419 kts | 251° |
| 2026-04-24 19:19 | 40.88216 | 35.20383 | 40022 ft | 420 kts | 251° |
| 2026-04-24 19:19 | 40.86127 | 35.13187 | 40041 ft | 420 kts | 251° |
| 2026-04-24 19:20 | 40.84036 | 35.06010 | 40034 ft | 419 kts | 251° |
| 2026-04-24 19:20 | 40.81933 | 34.98818 | 40044 ft | 419 kts | 251° |
| 2026-04-24 19:21 | 40.79843 | 34.91679 | 40040 ft | 420 kts | 251° |
| 2026-04-24 19:21 | 40.77728 | 34.84475 | 40058 ft | 420 kts | 251° |
| 2026-04-24 19:22 | 40.75619 | 34.77320 | 40044 ft | 420 kts | 251° |
| 2026-04-24 19:22 | 40.73494 | 34.70162 | 40058 ft | 420 kts | 250° |
| 2026-04-24 19:23 | 40.71333 | 34.63026 | 40050 ft | 420 kts | 250° |
| 2026-04-24 19:23 | 40.69171 | 34.55860 | 40042 ft | 420 kts | 251° |
| 2026-04-24 19:24 | 40.67015 | 34.48734 | 40048 ft | 420 kts | 250° |
| 2026-04-24 19:24 | 40.64845 | 34.41604 | 40039 ft | 421 kts | 251° |
| 2026-04-24 19:25 | 40.62682 | 34.34499 | 40042 ft | 421 kts | 250° |
| 2026-04-24 19:25 | 40.60491 | 34.27314 | 40032 ft | 421 kts | 250° |
| 2026-04-24 19:26 | 40.58316 | 34.20216 | 40045 ft | 421 kts | 250° |
| 2026-04-24 19:26 | 40.56121 | 34.13071 | 40043 ft | 421 kts | 250° |
| 2026-04-24 19:27 | 40.53933 | 34.05959 | 40045 ft | 422 kts | 250° |
| 2026-04-24 19:27 | 40.51729 | 33.98810 | 40048 ft | 422 kts | 250° |
| 2026-04-24 19:28 | 40.49623 | 33.91618 | 40030 ft | 421 kts | 254° |
| 2026-04-24 19:28 | 40.47859 | 33.84336 | 40045 ft | 421 kts | 253° |
| 2026-04-24 19:29 | 40.45388 | 33.73307 | 40034 ft | 419 kts | 262° |
| 2026-04-24 19:30 | 40.45326 | 33.65698 | 40043 ft | 419 kts | 278° |
| 2026-04-24 19:30 | 40.46652 | 33.58301 | 40008 ft | 419 kts | 283° |
| 2026-04-24 19:31 | 40.48006 | 33.50831 | 40032 ft | 420 kts | 283° |
| 2026-04-24 19:31 | 40.49371 | 33.43407 | 40036 ft | 420 kts | 283° |
| 2026-04-24 19:32 | 40.50742 | 33.35914 | 40009 ft | 422 kts | 283° |
| 2026-04-24 19:32 | 40.52096 | 33.28448 | 40025 ft | 422 kts | 283° |
| 2026-04-24 19:33 | 40.53457 | 33.20965 | 40035 ft | 421 kts | 283° |
| 2026-04-24 19:33 | 40.54809 | 33.13496 | 40037 ft | 422 kts | 283° |
| 2026-04-24 19:34 | 40.56160 | 33.05988 | 40037 ft | 423 kts | 283° |
| 2026-04-24 19:34 | 40.57509 | 32.98477 | 40029 ft | 423 kts | 283° |
| 2026-04-24 19:35 | 40.58861 | 32.90923 | 40036 ft | 423 kts | 283° |
| 2026-04-24 19:35 | 40.60205 | 32.83391 | 40028 ft | 424 kts | 283° |
| 2026-04-24 19:36 | 40.61534 | 32.75891 | 40024 ft | 424 kts | 283° |
| 2026-04-24 19:36 | 40.62872 | 32.68322 | 40038 ft | 424 kts | 283° |
| 2026-04-24 19:37 | 40.64201 | 32.60775 | 40045 ft | 424 kts | 283° |
| 2026-04-24 19:37 | 40.65528 | 32.53207 | 40016 ft | 424 kts | 283° |
| 2026-04-24 19:38 | 40.66843 | 32.45681 | 40035 ft | 425 kts | 283° |
| 2026-04-24 19:38 | 40.68164 | 32.38091 | 40035 ft | 425 kts | 283° |
| 2026-04-24 19:39 | 40.69484 | 32.30472 | 40041 ft | 425 kts | 282° |
| 2026-04-24 19:39 | 40.70790 | 32.22909 | 40058 ft | 425 kts | 283° |
| 2026-04-24 19:40 | 40.72338 | 32.15362 | 40045 ft | 426 kts | 288° |
| 2026-04-24 19:40 | 40.74220 | 32.08020 | 40060 ft | 425 kts | 288° |
| 2026-04-24 19:41 | 40.76069 | 32.00583 | 40049 ft | 426 kts | 288° |
| 2026-04-24 19:41 | 40.77929 | 31.93176 | 40034 ft | 427 kts | 288° |
| 2026-04-24 19:42 | 40.79779 | 31.85715 | 40070 ft | 424 kts | 288° |
| 2026-04-24 19:42 | 40.80673 | 31.82105 | 40075 ft | 409 kts | 288° |
| 2026-04-24 19:42 | 40.81544 | 31.78590 | 40056 ft | 394 kts | 288° |
| 2026-04-24 19:42 | 40.82389 | 31.75186 | 40013 ft | 381 kts | 288° |
| 2026-04-24 19:43 | 40.83216 | 31.71846 | 39287 ft | 389 kts | 288° |
| 2026-04-24 19:43 | 40.84055 | 31.68438 | 38260 ft | 399 kts | 289° |
| 2026-04-24 19:43 | 40.84911 | 31.64950 | 37931 ft | 399 kts | 289° |
| 2026-04-24 19:43 | 40.85782 | 31.61400 | 37133 ft | 410 kts | 289° |
| 2026-04-24 19:44 | 40.86662 | 31.57818 | 36657 ft | 414 kts | 288° |
| 2026-04-24 19:44 | 40.87558 | 31.54169 | 36189 ft | 428 kts | 287° |
| 2026-04-24 19:44 | 40.88486 | 31.50368 | 34707 ft | 441 kts | 287° |
| 2026-04-24 19:44 | 40.89402 | 31.46606 | 34636 ft | 418 kts | 288° |
| 2026-04-24 19:45 | 40.90284 | 31.42989 | 34650 ft | 415 kts | 288° |
| 2026-04-24 19:45 | 40.91152 | 31.39314 | 34098 ft | 417 kts | 287° |
| 2026-04-24 19:45 | 40.91861 | 31.35627 | 33800 ft | 414 kts | 281° |
| 2026-04-24 19:45 | 40.92222 | 31.31808 | 33389 ft | 416 kts | 276° |
| 2026-04-24 19:46 | 40.92492 | 31.28074 | 33005 ft | 403 kts | 277° |
| 2026-04-24 19:46 | 40.92787 | 31.24429 | 31915 ft | 407 kts | 277° |
| 2026-04-24 19:46 | 40.93102 | 31.20668 | 30598 ft | 416 kts | 277° |
| 2026-04-24 19:46 | 40.93405 | 31.16881 | 29829 ft | 414 kts | 277° |
| 2026-04-24 19:47 | 40.93698 | 31.13093 | 29159 ft | 414 kts | 277° |
| 2026-04-24 19:47 | 40.93993 | 31.09304 | 28610 ft | 417 kts | 277° |
| 2026-04-24 19:47 | 40.94292 | 31.05510 | 28066 ft | 414 kts | 277° |
| 2026-04-24 19:47 | 40.94590 | 31.01722 | 27690 ft | 414 kts | 277° |
| 2026-04-24 19:48 | 40.94889 | 30.97882 | 27196 ft | 415 kts | 277° |
| 2026-04-24 19:48 | 40.95179 | 30.94104 | 26779 ft | 412 kts | 277° |
| 2026-04-24 19:48 | 40.95758 | 30.86498 | 25821 ft | 410 kts | 277° |
| 2026-04-24 19:49 | 40.96318 | 30.79094 | 24940 ft | 403 kts | 277° |
| 2026-04-24 19:49 | 40.96869 | 30.71776 | 24059 ft | 397 kts | 277° |
| 2026-04-24 19:50 | 40.97674 | 30.60942 | 22758 ft | 391 kts | 277° |
| 2026-04-24 19:50 | 40.97933 | 30.57414 | 22321 ft | 388 kts | 277° |
| 2026-04-24 19:51 | 40.98452 | 30.50298 | 21472 ft | 383 kts | 277° |
| 2026-04-24 19:51 | 40.98705 | 30.46804 | 21032 ft | 381 kts | 277° |
| 2026-04-24 19:52 | 40.99202 | 30.39895 | 20207 ft | 376 kts | 277° |
| 2026-04-24 19:52 | 40.99446 | 30.36481 | 19787 ft | 373 kts | 277° |
| 2026-04-24 19:52 | 40.99692 | 30.33025 | 19373 ft | 371 kts | 277° |
| 2026-04-24 19:52 | 40.99932 | 30.29651 | 18964 ft | 369 kts | 277° |
| 2026-04-24 19:53 | 41.00171 | 30.26260 | 18554 ft | 366 kts | 277° |
| 2026-04-24 19:53 | 41.00408 | 30.22905 | 18149 ft | 364 kts | 277° |
| 2026-04-24 19:53 | 41.00872 | 30.16293 | 17349 ft | 360 kts | 277° |
| 2026-04-24 19:54 | 41.01104 | 30.12981 | 16949 ft | 358 kts | 277° |
| 2026-04-24 19:54 | 41.01332 | 30.09701 | 16552 ft | 356 kts | 277° |
| 2026-04-24 19:54 | 41.01556 | 30.06464 | 16162 ft | 354 kts | 277° |
| 2026-04-24 19:54 | 41.01780 | 30.03221 | 15776 ft | 352 kts | 276° |
| 2026-04-24 19:55 | 41.01853 | 30.02148 | 15647 ft | 351 kts | 276° |
| 2026-04-24 19:55 | 41.02217 | 29.96780 | 14991 ft | 348 kts | 276° |
| 2026-04-24 19:55 | 41.02431 | 29.93621 | 14607 ft | 347 kts | 276° |
| 2026-04-24 19:55 | 41.02647 | 29.90418 | 14222 ft | 346 kts | 277° |
| 2026-04-24 19:56 | 41.02862 | 29.87233 | 13836 ft | 345 kts | 277° |
| 2026-04-24 19:56 | 41.03072 | 29.84095 | 13457 ft | 343 kts | 277° |
| 2026-04-24 19:56 | 41.03282 | 29.80925 | 13011 ft | 337 kts | 276° |
| 2026-04-24 19:56 | 41.03479 | 29.77915 | 12678 ft | 328 kts | 276° |
| 2026-04-24 19:57 | 41.03674 | 29.74928 | 12311 ft | 323 kts | 276° |
| 2026-04-24 19:57 | 41.03866 | 29.71998 | 11960 ft | 314 kts | 276° |
| 2026-04-24 19:57 | 41.04059 | 29.69161 | 11615 ft | 306 kts | 277° |
| 2026-04-24 19:57 | 41.04332 | 29.66356 | 11275 ft | 299 kts | 280° |
| 2026-04-24 19:58 | 41.04644 | 29.63666 | 10929 ft | 292 kts | 280° |
| 2026-04-24 19:58 | 41.04928 | 29.61055 | 10612 ft | 284 kts | 279° |
| 2026-04-24 19:58 | 41.05193 | 29.58492 | 10307 ft | 278 kts | 279° |
| 2026-04-24 19:58 | 41.05461 | 29.55959 | 9998 ft | 275 kts | 279° |
| 2026-04-24 19:59 | 41.05731 | 29.53472 | 9695 ft | 275 kts | 279° |
| 2026-04-24 19:59 | 41.06003 | 29.50961 | 9389 ft | 275 kts | 279° |
| 2026-04-24 19:59 | 41.06275 | 29.48407 | 9090 ft | 276 kts | 279° |
| 2026-04-24 19:59 | 41.06538 | 29.45899 | 8764 ft | 276 kts | 279° |
| 2026-04-24 20:00 | 41.06803 | 29.43366 | 8480 ft | 275 kts | 279° |
| 2026-04-24 20:00 | 41.07068 | 29.40848 | 8154 ft | 274 kts | 279° |
| 2026-04-24 20:00 | 41.07331 | 29.38367 | 7883 ft | 270 kts | 279° |
| 2026-04-24 20:00 | 41.07590 | 29.35912 | 7551 ft | 266 kts | 279° |
| 2026-04-24 20:01 | 41.07841 | 29.33506 | 7287 ft | 259 kts | 278° |
| 2026-04-24 20:01 | 41.08085 | 29.31142 | 6991 ft | 255 kts | 278° |
| 2026-04-24 20:01 | 41.08321 | 29.28858 | 6718 ft | 250 kts | 278° |
| 2026-04-24 20:01 | 41.08559 | 29.26568 | 6442 ft | 245 kts | 278° |
| 2026-04-24 20:02 | 41.08711 | 29.25111 | 6264 ft | 242 kts | 278° |
| 2026-04-24 20:02 | 41.09014 | 29.22191 | 5912 ft | 235 kts | 278° |
| 2026-04-24 20:02 | 41.09201 | 29.20384 | 5695 ft | 230 kts | 278° |
| 2026-04-24 20:02 | 41.09417 | 29.18292 | 5439 ft | 226 kts | 278° |
| 2026-04-24 20:03 | 41.09625 | 29.16266 | 5195 ft | 221 kts | 278° |
| 2026-04-24 20:03 | 41.09831 | 29.14248 | 4951 ft | 216 kts | 278° |
| 2026-04-24 20:03 | 41.10027 | 29.12321 | 4717 ft | 212 kts | 278° |
| 2026-04-24 20:03 | 41.09927 | 29.10373 | 4510 ft | 209 kts | 250° |
| 2026-04-24 20:04 | 41.09282 | 29.08676 | 4518 ft | 197 kts | 240° |
| 2026-04-24 20:04 | 41.08591 | 29.07122 | 4404 ft | 197 kts | 240° |
| 2026-04-24 20:04 | 41.07888 | 29.05564 | 4110 ft | 194 kts | 239° |
| 2026-04-24 20:04 | 41.07203 | 29.04067 | 3858 ft | 190 kts | 239° |
| 2026-04-24 20:05 | 41.06509 | 29.02556 | 3571 ft | 189 kts | 239° |
| 2026-04-24 20:05 | 41.05828 | 29.01074 | 3312 ft | 188 kts | 239° |
| 2026-04-24 20:05 | 41.05145 | 28.99587 | 3045 ft | 188 kts | 239° |
| 2026-04-24 20:05 | 41.04464 | 28.98110 | 2778 ft | 182 kts | 239° |
| 2026-04-24 20:06 | 41.03843 | 28.96760 | 2522 ft | 159 kts | 239° |
| 2026-04-24 20:06 | 41.03318 | 28.95620 | 2366 ft | 137 kts | 239° |
| 2026-04-24 20:06 | 41.02826 | 28.94553 | 2163 ft | 135 kts | 238° |
| 2026-04-24 20:06 | 41.02345 | 28.93509 | 1912 ft | 130 kts | 238° |
| 2026-04-24 20:07 | 41.02028 | 28.92823 | 1812 ft | 130 kts | 238° |
| 2026-04-24 20:07 | 41.01399 | 28.91458 | 1555 ft | 129 kts | 238° |
| 2026-04-24 20:07 | 41.00933 | 28.90450 | 1396 ft | 130 kts | 238° |
| 2026-04-24 20:07 | 41.00458 | 28.89421 | 1174 ft | 128 kts | 238° |
| 2026-04-24 20:08 | 40.99992 | 28.88413 | 1011 ft | 129 kts | 238° |
| 2026-04-24 20:08 | 40.99521 | 28.87390 | 810 ft | 129 kts | 238° |
| 2026-04-24 20:08 | 40.99062 | 28.86391 | 637 ft | 129 kts | 238° |
| 2026-04-24 20:08 | 40.98590 | 28.85375 | 460 ft | 128 kts | 239° |
| 2026-04-24 20:09 | 40.98120 | 28.84356 | 272 ft | 128 kts | 238° |
| 2026-04-24 20:09 | 40.97660 | 28.83363 | 92 ft | 127 kts | 238° |
| 2026-04-24 20:09 | 40.97255 | 28.82489 | 93 ft | 82 kts | 239° |
| 2026-04-24 20:09 | 40.97048 | 28.82038 | 83 ft | 40 kts | 242° |
| 2026-04-24 20:10 | 40.96992 | 28.81707 | 81 ft | 23 kts | 268° |
| 2026-04-24 20:10 | 40.96989 | 28.81588 | 82 ft | 10 kts | 269° |
| 2026-04-24 20:10 | 40.97001 | 28.81491 | 84 ft | 11 kts | 299° |
| 2026-04-24 20:10 | 40.97069 | 28.81443 | 87 ft | 9 kts | 355° |
| 2026-04-24 20:11 | 40.97146 | 28.81442 | 88 ft | 9 kts | 356° |
| 2026-04-24 20:11 | 40.97179 | 28.81439 | 89 ft | 3 kts | 356° |
| 2026-04-24 20:11 | 40.97208 | 28.81437 | 90 ft | 5 kts | 358° |
| 2026-04-24 20:11 | 40.97230 | 28.81407 | 92 ft | 6 kts | 263° |
| 2026-04-24 20:12 | 40.97228 | 28.81363 | 93 ft | 4 kts | 268° |
| 2026-04-24 20:12 | 40.97227 | 28.81341 | 93 ft | 1 kts | 268° |
| 2026-04-24 20:12 | 40.97227 | 28.81340 | 93 ft | 0 kts | 268° |